sensor_id;sensor_type;location;lat;lon;timestamp;temperature;humidity
38848;DHT22;24602;44.780;20.408;2022-07-29T00:01:08;25.60;94.80
38848;DHT22;24602;44.780;20.408;2022-07-29T00:03:46;25.60;94.50
38848;DHT22;24602;44.780;20.408;2022-07-29T00:06:15;25.60;94.40
38848;DHT22;24602;44.780;20.408;2022-07-29T00:08:42;25.50;94.30
38848;DHT22;24602;44.780;20.408;2022-07-29T00:11:10;25.50;94.40
38848;DHT22;24602;44.780;20.408;2022-07-29T00:13:37;25.50;94.70
38848;DHT22;24602;44.780;20.408;2022-07-29T00:16:04;25.50;94.80
38848;DHT22;24602;44.780;20.408;2022-07-29T00:18:32;25.50;95.00
38848;DHT22;24602;44.780;20.408;2022-07-29T00:20:59;25.50;94.50
38848;DHT22;24602;44.780;20.408;2022-07-29T00:23:26;25.60;94.60
38848;DHT22;24602;44.780;20.408;2022-07-29T00:25:54;25.50;94.60
38848;DHT22;24602;44.780;20.408;2022-07-29T00:28:21;25.60;94.80
38848;DHT22;24602;44.780;20.408;2022-07-29T00:30:48;25.50;95.10
38848;DHT22;24602;44.780;20.408;2022-07-29T00:33:15;25.50;96.30
38848;DHT22;24602;44.780;20.408;2022-07-29T00:35:42;25.50;96.80
38848;DHT22;24602;44.780;20.408;2022-07-29T00:38:17;25.40;97.10
38848;DHT22;24602;44.780;20.408;2022-07-29T00:40:45;25.40;97.10
38848;DHT22;24602;44.780;20.408;2022-07-29T00:43:14;25.30;97.20
38848;DHT22;24602;44.780;20.408;2022-07-29T00:45:42;25.30;97.40
38848;DHT22;24602;44.780;20.408;2022-07-29T00:48:11;25.30;97.50
38848;DHT22;24602;44.780;20.408;2022-07-29T00:50:39;25.30;97.40
38848;DHT22;24602;44.780;20.408;2022-07-29T00:53:07;25.30;97.30
38848;DHT22;24602;44.780;20.408;2022-07-29T00:55:35;25.30;97.20
38848;DHT22;24602;44.780;20.408;2022-07-29T00:58:03;25.30;97.20
38848;DHT22;24602;44.780;20.408;2022-07-29T01:00:30;25.30;97.00
38848;DHT22;24602;44.780;20.408;2022-07-29T01:02:58;25.30;97.20
38848;DHT22;24602;44.780;20.408;2022-07-29T01:05:26;25.20;97.50
38848;DHT22;24602;44.780;20.408;2022-07-29T01:08:15;25.20;97.40
38848;DHT22;24602;44.780;20.408;2022-07-29T01:10:44;25.10;97.50
38848;DHT22;24602;44.780;20.408;2022-07-29T01:13:13;25.10;97.50
38848;DHT22;24602;44.780;20.408;2022-07-29T01:15:49;25.10;97.70
38848;DHT22;24602;44.780;20.408;2022-07-29T01:18:28;25.10;97.60
38848;DHT22;24602;44.780;20.408;2022-07-29T01:24:20;25.00;97.80
38848;DHT22;24602;44.780;20.408;2022-07-29T01:29:55;25.00;98.30
38848;DHT22;24602;44.780;20.408;2022-07-29T01:32:29;25.00;98.60
38848;DHT22;24602;44.780;20.408;2022-07-29T01:35:06;24.90;98.80
38848;DHT22;24602;44.780;20.408;2022-07-29T01:37:39;24.90;98.80
38848;DHT22;24602;44.780;20.408;2022-07-29T01:40:14;24.90;98.90
38848;DHT22;24602;44.780;20.408;2022-07-29T01:42:49;24.80;98.80
38848;DHT22;24602;44.780;20.408;2022-07-29T01:45:28;24.80;98.90
38848;DHT22;24602;44.780;20.408;2022-07-29T01:48:12;24.70;98.70
38848;DHT22;24602;44.780;20.408;2022-07-29T01:50:49;24.70;98.80
38848;DHT22;24602;44.780;20.408;2022-07-29T01:53:35;24.70;99.10
38848;DHT22;24602;44.780;20.408;2022-07-29T01:56:06;24.60;99.30
38848;DHT22;24602;44.780;20.408;2022-07-29T01:58:38;24.40;99.50
38848;DHT22;24602;44.780;20.408;2022-07-29T02:01:08;24.40;99.50
38848;DHT22;24602;44.780;20.408;2022-07-29T02:03:37;24.40;99.40
38848;DHT22;24602;44.780;20.408;2022-07-29T02:06:07;24.40;99.30
38848;DHT22;24602;44.780;20.408;2022-07-29T02:08:37;24.40;99.10
38848;DHT22;24602;44.780;20.408;2022-07-29T02:11:06;24.40;99.10
38848;DHT22;24602;44.780;20.408;2022-07-29T02:13:35;24.40;99.20
38848;DHT22;24602;44.780;20.408;2022-07-29T02:16:06;24.40;99.10
38848;DHT22;24602;44.780;20.408;2022-07-29T02:18:36;24.40;99.10
38848;DHT22;24602;44.780;20.408;2022-07-29T02:21:04;24.40;99.10
38848;DHT22;24602;44.780;20.408;2022-07-29T02:23:42;24.50;99.10
38848;DHT22;24602;44.780;20.408;2022-07-29T02:26:19;24.50;99.30
38848;DHT22;24602;44.780;20.408;2022-07-29T02:28:52;24.40;99.50
38848;DHT22;24602;44.780;20.408;2022-07-29T02:31:24;24.40;99.60
38848;DHT22;24602;44.780;20.408;2022-07-29T02:33:53;24.40;99.80
38848;DHT22;24602;44.780;20.408;2022-07-29T02:36:22;24.40;99.90
38848;DHT22;24602;44.780;20.408;2022-07-29T02:38:51;24.30;99.90
38848;DHT22;24602;44.780;20.408;2022-07-29T02:41:22;24.30;99.80
38848;DHT22;24602;44.780;20.408;2022-07-29T02:43:55;24.30;99.90
38848;DHT22;24602;44.780;20.408;2022-07-29T02:46:34;24.30;99.90
38848;DHT22;24602;44.780;20.408;2022-07-29T02:51:54;24.20;99.90
38848;DHT22;24602;44.780;20.408;2022-07-29T02:57:13;24.10;99.90
38848;DHT22;24602;44.780;20.408;2022-07-29T02:59:43;24.10;99.90
38848;DHT22;24602;44.780;20.408;2022-07-29T03:02:13;24.00;99.90
38848;DHT22;24602;44.780;20.408;2022-07-29T03:04:42;23.80;99.90
38848;DHT22;24602;44.780;20.408;2022-07-29T03:07:13;23.80;99.90
38848;DHT22;24602;44.780;20.408;2022-07-29T03:09:42;23.90;99.90
38848;DHT22;24602;44.780;20.408;2022-07-29T03:12:10;23.80;99.90
38848;DHT22;24602;44.780;20.408;2022-07-29T03:14:38;23.90;99.90
38848;DHT22;24602;44.780;20.408;2022-07-29T03:17:06;23.80;99.90
38848;DHT22;24602;44.780;20.408;2022-07-29T03:19:34;23.90;99.90
38848;DHT22;24602;44.780;20.408;2022-07-29T03:22:01;23.90;99.90
38848;DHT22;24602;44.780;20.408;2022-07-29T03:24:31;23.90;99.90
38848;DHT22;24602;44.780;20.408;2022-07-29T03:27:00;23.90;99.90
38848;DHT22;24602;44.780;20.408;2022-07-29T03:29:28;23.80;99.90
38848;DHT22;24602;44.780;20.408;2022-07-29T03:32:02;23.80;99.90
38848;DHT22;24602;44.780;20.408;2022-07-29T03:34:33;23.80;99.90
38848;DHT22;24602;44.780;20.408;2022-07-29T03:37:00;23.80;99.90
38848;DHT22;24602;44.780;20.408;2022-07-29T03:42:00;23.70;99.90
38848;DHT22;24602;44.780;20.408;2022-07-29T03:44:28;23.70;99.90
38848;DHT22;24602;44.780;20.408;2022-07-29T03:46:57;23.70;99.90
38848;DHT22;24602;44.780;20.408;2022-07-29T03:49:27;23.70;99.90
38848;DHT22;24602;44.780;20.408;2022-07-29T03:51:55;23.70;99.90
38848;DHT22;24602;44.780;20.408;2022-07-29T03:54:22;23.70;99.90
38848;DHT22;24602;44.780;20.408;2022-07-29T03:56:51;23.70;99.90
38848;DHT22;24602;44.780;20.408;2022-07-29T03:59:20;23.70;99.90
38848;DHT22;24602;44.780;20.408;2022-07-29T04:01:48;23.70;99.90
38848;DHT22;24602;44.780;20.408;2022-07-29T04:04:16;23.70;99.90
38848;DHT22;24602;44.780;20.408;2022-07-29T04:06:45;23.80;99.90
38848;DHT22;24602;44.780;20.408;2022-07-29T04:09:14;23.80;99.90
38848;DHT22;24602;44.780;20.408;2022-07-29T04:11:42;23.80;99.90
38848;DHT22;24602;44.780;20.408;2022-07-29T04:14:34;23.80;99.90
38848;DHT22;24602;44.780;20.408;2022-07-29T04:17:02;23.90;99.90
38848;DHT22;24602;44.780;20.408;2022-07-29T04:19:30;23.90;99.90
38848;DHT22;24602;44.780;20.408;2022-07-29T04:21:59;23.90;99.90
38848;DHT22;24602;44.780;20.408;2022-07-29T04:24:26;23.90;99.90
38848;DHT22;24602;44.780;20.408;2022-07-29T04:26:54;23.90;99.90
38848;DHT22;24602;44.780;20.408;2022-07-29T04:29:21;23.90;99.90
38848;DHT22;24602;44.780;20.408;2022-07-29T04:31:48;23.90;99.90
38848;DHT22;24602;44.780;20.408;2022-07-29T04:34:15;23.90;99.90
38848;DHT22;24602;44.780;20.408;2022-07-29T04:36:43;24.00;99.90
38848;DHT22;24602;44.780;20.408;2022-07-29T04:39:11;24.00;99.90
38848;DHT22;24602;44.780;20.408;2022-07-29T04:41:38;24.00;99.90
38848;DHT22;24602;44.780;20.408;2022-07-29T04:44:05;24.00;99.90
38848;DHT22;24602;44.780;20.408;2022-07-29T04:46:35;24.00;99.90
38848;DHT22;24602;44.780;20.408;2022-07-29T04:49:03;24.00;99.90
38848;DHT22;24602;44.780;20.408;2022-07-29T04:51:30;24.10;99.90
38848;DHT22;24602;44.780;20.408;2022-07-29T04:53:58;24.10;99.90
38848;DHT22;24602;44.780;20.408;2022-07-29T04:56:25;24.10;99.90
38848;DHT22;24602;44.780;20.408;2022-07-29T04:58:54;24.10;99.90
38848;DHT22;24602;44.780;20.408;2022-07-29T05:01:21;24.20;99.90
38848;DHT22;24602;44.780;20.408;2022-07-29T05:03:48;24.30;99.90
38848;DHT22;24602;44.780;20.408;2022-07-29T05:06:16;24.30;99.90
38848;DHT22;24602;44.780;20.408;2022-07-29T05:08:43;24.30;99.90
38848;DHT22;24602;44.780;20.408;2022-07-29T05:11:10;24.30;99.90
38848;DHT22;24602;44.780;20.408;2022-07-29T05:13:41;24.40;99.90
38848;DHT22;24602;44.780;20.408;2022-07-29T05:16:13;24.40;99.90
38848;DHT22;24602;44.780;20.408;2022-07-29T05:18:41;24.40;99.90
38848;DHT22;24602;44.780;20.408;2022-07-29T05:21:09;24.40;99.90
38848;DHT22;24602;44.780;20.408;2022-07-29T05:23:36;24.40;99.90
38848;DHT22;24602;44.780;20.408;2022-07-29T05:26:03;24.40;99.90
38848;DHT22;24602;44.780;20.408;2022-07-29T05:28:34;24.50;99.90
38848;DHT22;24602;44.780;20.408;2022-07-29T05:31:02;24.60;99.90
38848;DHT22;24602;44.780;20.408;2022-07-29T05:33:29;24.60;99.90
38848;DHT22;24602;44.780;20.408;2022-07-29T05:36:04;24.60;99.90
38848;DHT22;24602;44.780;20.408;2022-07-29T05:38:34;24.70;99.90
38848;DHT22;24602;44.780;20.408;2022-07-29T05:41:05;24.70;99.90
38848;DHT22;24602;44.780;20.408;2022-07-29T05:43:32;24.80;99.90
38848;DHT22;24602;44.780;20.408;2022-07-29T05:46:00;24.80;99.90
38848;DHT22;24602;44.780;20.408;2022-07-29T05:48:27;24.90;99.90
38848;DHT22;24602;44.780;20.408;2022-07-29T05:50:55;25.00;99.90
38848;DHT22;24602;44.780;20.408;2022-07-29T05:53:22;25.10;99.90
38848;DHT22;24602;44.780;20.408;2022-07-29T05:55:54;25.20;99.90
38848;DHT22;24602;44.780;20.408;2022-07-29T05:58:22;25.20;99.90
38848;DHT22;24602;44.780;20.408;2022-07-29T06:00:49;25.20;99.90
38848;DHT22;24602;44.780;20.408;2022-07-29T06:03:16;25.30;99.90
38848;DHT22;24602;44.780;20.408;2022-07-29T06:05:43;25.30;99.90
38848;DHT22;24602;44.780;20.408;2022-07-29T06:08:11;25.40;99.90
38848;DHT22;24602;44.780;20.408;2022-07-29T06:10:38;25.40;99.90
38848;DHT22;24602;44.780;20.408;2022-07-29T06:13:06;25.50;99.90
38848;DHT22;24602;44.780;20.408;2022-07-29T06:15:33;25.50;99.90
38848;DHT22;24602;44.780;20.408;2022-07-29T06:18:01;25.60;99.90
38848;DHT22;24602;44.780;20.408;2022-07-29T06:20:29;25.60;99.80
38848;DHT22;24602;44.780;20.408;2022-07-29T06:22:58;25.70;99.80
38848;DHT22;24602;44.780;20.408;2022-07-29T06:25:26;25.60;99.40
38848;DHT22;24602;44.780;20.408;2022-07-29T06:27:53;25.70;99.40
38848;DHT22;24602;44.780;20.408;2022-07-29T06:30:20;25.70;99.50
38848;DHT22;24602;44.780;20.408;2022-07-29T06:32:48;25.70;99.20
38848;DHT22;24602;44.780;20.408;2022-07-29T06:35:16;25.70;99.30
38848;DHT22;24602;44.780;20.408;2022-07-29T06:38:03;25.80;99.50
38848;DHT22;24602;44.780;20.408;2022-07-29T06:40:51;25.80;99.40
38848;DHT22;24602;44.780;20.408;2022-07-29T06:43:35;25.90;99.20
38848;DHT22;24602;44.780;20.408;2022-07-29T06:46:21;25.90;99.20
38848;DHT22;24602;44.780;20.408;2022-07-29T06:48:49;26.00;99.30
38848;DHT22;24602;44.780;20.408;2022-07-29T06:51:17;26.00;99.20
38848;DHT22;24602;44.780;20.408;2022-07-29T06:53:51;26.10;99.20
38848;DHT22;24602;44.780;20.408;2022-07-29T06:56:34;26.10;99.00
38848;DHT22;24602;44.780;20.408;2022-07-29T06:59:08;26.20;98.80
38848;DHT22;24602;44.780;20.408;2022-07-29T07:01:41;26.10;98.60
38848;DHT22;24602;44.780;20.408;2022-07-29T07:04:09;26.20;98.70
38848;DHT22;24602;44.780;20.408;2022-07-29T07:06:37;26.20;98.60
38848;DHT22;24602;44.780;20.408;2022-07-29T07:09:04;26.20;98.60
38848;DHT22;24602;44.780;20.408;2022-07-29T07:11:32;26.30;98.40
38848;DHT22;24602;44.780;20.408;2022-07-29T07:13:59;26.40;98.50
38848;DHT22;24602;44.780;20.408;2022-07-29T07:16:31;26.50;98.20
38848;DHT22;24602;44.780;20.408;2022-07-29T07:18:59;26.60;97.70
38848;DHT22;24602;44.780;20.408;2022-07-29T07:21:26;26.70;97.30
38848;DHT22;24602;44.780;20.408;2022-07-29T07:23:57;26.70;97.30
38848;DHT22;24602;44.780;20.408;2022-07-29T07:26:24;26.80;97.10
38848;DHT22;24602;44.780;20.408;2022-07-29T07:28:52;26.90;97.20
38848;DHT22;24602;44.780;20.408;2022-07-29T07:31:19;27.10;96.90
38848;DHT22;24602;44.780;20.408;2022-07-29T07:33:47;27.10;96.70
38848;DHT22;24602;44.780;20.408;2022-07-29T07:36:14;27.10;96.70
38848;DHT22;24602;44.780;20.408;2022-07-29T07:38:41;27.20;96.50
38848;DHT22;24602;44.780;20.408;2022-07-29T07:41:08;27.10;96.60
38848;DHT22;24602;44.780;20.408;2022-07-29T07:43:36;27.00;96.30
38848;DHT22;24602;44.780;20.408;2022-07-29T07:46:03;26.90;96.70
38848;DHT22;24602;44.780;20.408;2022-07-29T07:48:30;26.90;96.80
38848;DHT22;24602;44.780;20.408;2022-07-29T07:50:57;27.00;97.00
38848;DHT22;24602;44.780;20.408;2022-07-29T07:53:25;27.00;96.90
38848;DHT22;24602;44.780;20.408;2022-07-29T07:55:52;26.80;96.70
38848;DHT22;24602;44.780;20.408;2022-07-29T07:58:37;26.80;96.80
38848;DHT22;24602;44.780;20.408;2022-07-29T08:01:04;26.80;96.80
38848;DHT22;24602;44.780;20.408;2022-07-29T08:03:32;26.80;96.80
38848;DHT22;24602;44.780;20.408;2022-07-29T08:06:00;26.90;96.70
38848;DHT22;24602;44.780;20.408;2022-07-29T08:08:27;26.90;96.80
38848;DHT22;24602;44.780;20.408;2022-07-29T08:10:55;27.00;96.60
38848;DHT22;24602;44.780;20.408;2022-07-29T08:13:25;27.10;96.60
38848;DHT22;24602;44.780;20.408;2022-07-29T08:15:55;27.20;96.90
38848;DHT22;24602;44.780;20.408;2022-07-29T08:18:29;27.20;96.00
38848;DHT22;24602;44.780;20.408;2022-07-29T08:20:57;27.30;96.00
38848;DHT22;24602;44.780;20.408;2022-07-29T08:23:25;27.40;96.00
38848;DHT22;24602;44.780;20.408;2022-07-29T08:26:13;27.40;96.00
38848;DHT22;24602;44.780;20.408;2022-07-29T08:28:42;27.50;96.10
38848;DHT22;24602;44.780;20.408;2022-07-29T08:31:13;27.60;96.10
38848;DHT22;24602;44.780;20.408;2022-07-29T08:33:40;27.70;96.00
38848;DHT22;24602;44.780;20.408;2022-07-29T08:36:08;27.80;95.80
38848;DHT22;24602;44.780;20.408;2022-07-29T08:38:35;27.80;95.40
38848;DHT22;24602;44.780;20.408;2022-07-29T08:41:02;27.90;95.30
38848;DHT22;24602;44.780;20.408;2022-07-29T08:43:30;28.00;95.10
38848;DHT22;24602;44.780;20.408;2022-07-29T08:45:57;28.00;95.20
38848;DHT22;24602;44.780;20.408;2022-07-29T08:48:25;28.00;94.90
38848;DHT22;24602;44.780;20.408;2022-07-29T08:50:56;28.00;94.50
38848;DHT22;24602;44.780;20.408;2022-07-29T08:53:25;28.00;94.20
38848;DHT22;24602;44.780;20.408;2022-07-29T08:55:54;28.00;94.50
38848;DHT22;24602;44.780;20.408;2022-07-29T08:58:22;28.00;94.40
38848;DHT22;24602;44.780;20.408;2022-07-29T09:00:53;28.00;94.00
38848;DHT22;24602;44.780;20.408;2022-07-29T09:03:29;28.10;93.90
38848;DHT22;24602;44.780;20.408;2022-07-29T09:05:57;28.20;93.90
38848;DHT22;24602;44.780;20.408;2022-07-29T09:08:26;28.30;93.80
38848;DHT22;24602;44.780;20.408;2022-07-29T09:10:54;28.30;93.60
38848;DHT22;24602;44.780;20.408;2022-07-29T09:13:29;28.40;93.10
38848;DHT22;24602;44.780;20.408;2022-07-29T09:15:57;28.50;93.50
38848;DHT22;24602;44.780;20.408;2022-07-29T09:18:44;28.60;93.00
38848;DHT22;24602;44.780;20.408;2022-07-29T09:21:14;28.60;93.40
38848;DHT22;24602;44.780;20.408;2022-07-29T09:24:07;28.70;93.30
38848;DHT22;24602;44.780;20.408;2022-07-29T09:26:40;28.80;93.20
38848;DHT22;24602;44.780;20.408;2022-07-29T09:29:13;28.80;93.10
38848;DHT22;24602;44.780;20.408;2022-07-29T09:31:43;28.80;92.90
38848;DHT22;24602;44.780;20.408;2022-07-29T09:34:14;29.00;92.40
38848;DHT22;24602;44.780;20.408;2022-07-29T09:36:43;29.00;92.40
38848;DHT22;24602;44.780;20.408;2022-07-29T09:39:11;29.00;92.50
38848;DHT22;24602;44.780;20.408;2022-07-29T09:41:50;29.10;92.50
38848;DHT22;24602;44.780;20.408;2022-07-29T09:44:21;29.30;92.20
38848;DHT22;24602;44.780;20.408;2022-07-29T09:47:02;29.30;91.90
38848;DHT22;24602;44.780;20.408;2022-07-29T09:49:33;29.30;91.80
38848;DHT22;24602;44.780;20.408;2022-07-29T09:52:05;29.40;91.70
38848;DHT22;24602;44.780;20.408;2022-07-29T09:54:33;29.40;91.80
38848;DHT22;24602;44.780;20.408;2022-07-29T09:57:27;29.40;91.70
38848;DHT22;24602;44.780;20.408;2022-07-29T10:02:40;29.40;91.20
38848;DHT22;24602;44.780;20.408;2022-07-29T10:05:19;29.40;91.30
38848;DHT22;24602;44.780;20.408;2022-07-29T10:07:53;29.40;91.40
38848;DHT22;24602;44.780;20.408;2022-07-29T10:10:31;29.30;91.50
38848;DHT22;24602;44.780;20.408;2022-07-29T10:13:03;29.20;91.50
38848;DHT22;24602;44.780;20.408;2022-07-29T10:15:43;29.10;91.90
38848;DHT22;24602;44.780;20.408;2022-07-29T10:18:13;29.20;91.70
38848;DHT22;24602;44.780;20.408;2022-07-29T10:20:41;29.30;91.50
38848;DHT22;24602;44.780;20.408;2022-07-29T10:23:09;29.40;91.60
38848;DHT22;24602;44.780;20.408;2022-07-29T10:25:36;29.40;91.60
38848;DHT22;24602;44.780;20.408;2022-07-29T10:28:05;29.40;91.10
38848;DHT22;24602;44.780;20.408;2022-07-29T10:30:33;29.50;90.90
38848;DHT22;24602;44.780;20.408;2022-07-29T10:35:33;29.50;90.50
38848;DHT22;24602;44.780;20.408;2022-07-29T10:43:49;29.80;90.30
38848;DHT22;24602;44.780;20.408;2022-07-29T10:46:18;29.80;90.00
38848;DHT22;24602;44.780;20.408;2022-07-29T10:54:43;29.70;90.40
38848;DHT22;24602;44.780;20.408;2022-07-29T10:57:28;29.80;90.80
38848;DHT22;24602;44.780;20.408;2022-07-29T11:00:28;30.00;90.50
38848;DHT22;24602;44.780;20.408;2022-07-29T11:02:56;30.10;90.30
38848;DHT22;24602;44.780;20.408;2022-07-29T11:05:25;30.10;89.30
38848;DHT22;24602;44.780;20.408;2022-07-29T11:10:51;30.00;89.90
38848;DHT22;24602;44.780;20.408;2022-07-29T11:16:15;30.00;89.10
38848;DHT22;24602;44.780;20.408;2022-07-29T11:21:58;30.00;89.10
38848;DHT22;24602;44.780;20.408;2022-07-29T11:24:26;30.00;89.40
38848;DHT22;24602;44.780;20.408;2022-07-29T11:29:47;30.30;89.70
38848;DHT22;24602;44.780;20.408;2022-07-29T11:32:17;30.50;88.70
38848;DHT22;24602;44.780;20.408;2022-07-29T11:35:23;30.60;89.00
38848;DHT22;24602;44.780;20.408;2022-07-29T11:38:25;30.70;88.60
38848;DHT22;24602;44.780;20.408;2022-07-29T11:43:59;30.70;89.90
38848;DHT22;24602;44.780;20.408;2022-07-29T11:46:49;30.70;90.00
38848;DHT22;24602;44.780;20.408;2022-07-29T11:49:21;30.90;89.90
38848;DHT22;24602;44.780;20.408;2022-07-29T11:52:00;30.90;89.10
38848;DHT22;24602;44.780;20.408;2022-07-29T11:54:50;31.10;90.00
38848;DHT22;24602;44.780;20.408;2022-07-29T11:57:25;31.20;90.30
38848;DHT22;24602;44.780;20.408;2022-07-29T12:00:07;31.10;89.70
38848;DHT22;24602;44.780;20.408;2022-07-29T12:02:41;31.30;90.80
38848;DHT22;24602;44.780;20.408;2022-07-29T12:05:14;31.30;90.50
38848;DHT22;24602;44.780;20.408;2022-07-29T12:08:09;31.50;92.00
38848;DHT22;24602;44.780;20.408;2022-07-29T12:10:41;31.50;93.10
38848;DHT22;24602;44.780;20.408;2022-07-29T12:13:10;31.50;94.30
38848;DHT22;24602;44.780;20.408;2022-07-29T12:15:39;31.50;94.40
38848;DHT22;24602;44.780;20.408;2022-07-29T12:18:15;31.70;94.60
38848;DHT22;24602;44.780;20.408;2022-07-29T12:20:44;31.70;96.10
38848;DHT22;24602;44.780;20.408;2022-07-29T12:23:12;31.80;97.80
38848;DHT22;24602;44.780;20.408;2022-07-29T12:25:43;32.00;80.60
38848;DHT22;24602;44.780;20.408;2022-07-29T12:28:16;32.20;83.90
38848;DHT22;24602;44.780;20.408;2022-07-29T12:30:53;32.20;77.50
38848;DHT22;24602;44.780;20.408;2022-07-29T12:33:25;32.40;77.10
38848;DHT22;24602;44.780;20.408;2022-07-29T12:36:00;32.40;75.50
38848;DHT22;24602;44.780;20.408;2022-07-29T12:38:34;32.50;75.20
38848;DHT22;24602;44.780;20.408;2022-07-29T12:41:03;32.60;75.50
38848;DHT22;24602;44.780;20.408;2022-07-29T12:43:31;32.60;75.60
38848;DHT22;24602;44.780;20.408;2022-07-29T12:46:12;32.70;75.80
38848;DHT22;24602;44.780;20.408;2022-07-29T12:48:42;32.90;74.80
38848;DHT22;24602;44.780;20.408;2022-07-29T12:51:10;33.10;73.70
38848;DHT22;24602;44.780;20.408;2022-07-29T12:53:38;33.10;73.50
38848;DHT22;24602;44.780;20.408;2022-07-29T12:56:06;33.00;74.00
38848;DHT22;24602;44.780;20.408;2022-07-29T12:59:16;33.10;73.90
38848;DHT22;24602;44.780;20.408;2022-07-29T13:01:46;33.00;73.90
38848;DHT22;24602;44.780;20.408;2022-07-29T13:04:29;33.00;74.00
38848;DHT22;24602;44.780;20.408;2022-07-29T13:07:06;33.30;74.00
38848;DHT22;24602;44.780;20.408;2022-07-29T13:09:43;33.20;74.20
38848;DHT22;24602;44.780;20.408;2022-07-29T13:12:13;33.60;73.00
38848;DHT22;24602;44.780;20.408;2022-07-29T13:14:48;34.30;70.50
38848;DHT22;24602;44.780;20.408;2022-07-29T13:17:16;35.60;67.10
38848;DHT22;24602;44.780;20.408;2022-07-29T13:19:49;36.30;63.50
38848;DHT22;24602;44.780;20.408;2022-07-29T13:32:28;39.20;55.00
38848;DHT22;24602;44.780;20.408;2022-07-29T13:34:56;39.50;54.60
38848;DHT22;24602;44.780;20.408;2022-07-29T13:37:24;40.20;51.60
38848;DHT22;24602;44.780;20.408;2022-07-29T13:39:52;41.60;49.70
38848;DHT22;24602;44.780;20.408;2022-07-29T13:42:21;42.10;47.70
38848;DHT22;24602;44.780;20.408;2022-07-29T13:44:48;43.30;45.70
38848;DHT22;24602;44.780;20.408;2022-07-29T13:47:18;44.10;43.20
38848;DHT22;24602;44.780;20.408;2022-07-29T13:49:46;43.70;42.20
38848;DHT22;24602;44.780;20.408;2022-07-29T13:52:14;43.00;42.50
38848;DHT22;24602;44.780;20.408;2022-07-29T13:54:43;42.30;42.80
38848;DHT22;24602;44.780;20.408;2022-07-29T13:57:12;41.90;43.30
38848;DHT22;24602;44.780;20.408;2022-07-29T13:59:41;41.70;43.60
38848;DHT22;24602;44.780;20.408;2022-07-29T14:02:10;41.60;43.10
38848;DHT22;24602;44.780;20.408;2022-07-29T14:04:41;41.40;43.50
38848;DHT22;24602;44.780;20.408;2022-07-29T14:07:09;41.40;43.50
38848;DHT22;24602;44.780;20.408;2022-07-29T14:09:42;41.50;43.50
38848;DHT22;24602;44.780;20.408;2022-07-29T14:12:09;41.40;43.30
38848;DHT22;24602;44.780;20.408;2022-07-29T14:14:37;41.30;43.10
38848;DHT22;24602;44.780;20.408;2022-07-29T14:17:06;39.80;44.30
38848;DHT22;24602;44.780;20.408;2022-07-29T14:19:34;39.30;45.90
38848;DHT22;24602;44.780;20.408;2022-07-29T14:22:07;38.70;46.10
38848;DHT22;24602;44.780;20.408;2022-07-29T14:24:37;38.50;46.50
38848;DHT22;24602;44.780;20.408;2022-07-29T14:27:05;38.90;46.90
38848;DHT22;24602;44.780;20.408;2022-07-29T14:29:34;39.20;46.60
38848;DHT22;24602;44.780;20.408;2022-07-29T14:32:09;39.30;45.70
38848;DHT22;24602;44.780;20.408;2022-07-29T14:34:37;39.30;46.30
38848;DHT22;24602;44.780;20.408;2022-07-29T14:37:05;39.20;46.40
38848;DHT22;24602;44.780;20.408;2022-07-29T14:39:34;39.10;45.90
38848;DHT22;24602;44.780;20.408;2022-07-29T14:42:10;39.00;46.10
38848;DHT22;24602;44.780;20.408;2022-07-29T14:44:39;38.70;46.20
38848;DHT22;24602;44.780;20.408;2022-07-29T14:47:08;38.70;46.30
38848;DHT22;24602;44.780;20.408;2022-07-29T14:49:35;38.80;46.00
38848;DHT22;24602;44.780;20.408;2022-07-29T14:52:03;39.10;46.40
38848;DHT22;24602;44.780;20.408;2022-07-29T14:54:30;38.80;46.60
38848;DHT22;24602;44.780;20.408;2022-07-29T14:56:57;38.70;47.60
38848;DHT22;24602;44.780;20.408;2022-07-29T14:59:25;38.70;46.60
38848;DHT22;24602;44.780;20.408;2022-07-29T15:01:53;38.60;46.60
38848;DHT22;24602;44.780;20.408;2022-07-29T15:04:20;38.50;46.30
38848;DHT22;24602;44.780;20.408;2022-07-29T15:06:48;38.50;46.40
38848;DHT22;24602;44.780;20.408;2022-07-29T15:09:15;38.50;46.80
38848;DHT22;24602;44.780;20.408;2022-07-29T15:11:43;38.40;47.00
38848;DHT22;24602;44.780;20.408;2022-07-29T15:14:10;38.10;47.50
38848;DHT22;24602;44.780;20.408;2022-07-29T15:16:38;38.10;47.50
38848;DHT22;24602;44.780;20.408;2022-07-29T15:19:10;38.00;47.30
38848;DHT22;24602;44.780;20.408;2022-07-29T15:21:37;38.10;46.60
38848;DHT22;24602;44.780;20.408;2022-07-29T15:24:17;38.30;45.80
38848;DHT22;24602;44.780;20.408;2022-07-29T15:26:50;38.50;46.20
38848;DHT22;24602;44.780;20.408;2022-07-29T15:29:19;38.70;46.10
38848;DHT22;24602;44.780;20.408;2022-07-29T15:31:46;39.00;45.00
38848;DHT22;24602;44.780;20.408;2022-07-29T15:34:14;38.90;45.30
38848;DHT22;24602;44.780;20.408;2022-07-29T15:36:42;38.80;45.50
38848;DHT22;24602;44.780;20.408;2022-07-29T15:39:20;38.90;45.50
38848;DHT22;24602;44.780;20.408;2022-07-29T15:41:48;39.10;44.80
38848;DHT22;24602;44.780;20.408;2022-07-29T15:44:16;39.10;43.90
38848;DHT22;24602;44.780;20.408;2022-07-29T15:46:44;39.00;44.70
38848;DHT22;24602;44.780;20.408;2022-07-29T15:49:30;38.70;45.40
38848;DHT22;24602;44.780;20.408;2022-07-29T15:52:19;38.50;45.70
38848;DHT22;24602;44.780;20.408;2022-07-29T15:54:56;38.60;45.20
38848;DHT22;24602;44.780;20.408;2022-07-29T15:57:24;38.70;45.10
38848;DHT22;24602;44.780;20.408;2022-07-29T15:59:51;38.80;45.10
38848;DHT22;24602;44.780;20.408;2022-07-29T16:02:19;38.40;45.50
38848;DHT22;24602;44.780;20.408;2022-07-29T16:04:46;38.00;46.00
38848;DHT22;24602;44.780;20.408;2022-07-29T16:07:14;37.90;45.20
38848;DHT22;24602;44.780;20.408;2022-07-29T16:09:42;38.00;45.40
38848;DHT22;24602;44.780;20.408;2022-07-29T16:12:16;38.00;45.40
38848;DHT22;24602;44.780;20.408;2022-07-29T16:14:44;38.00;45.60
38848;DHT22;24602;44.780;20.408;2022-07-29T16:17:11;37.90;45.90
38848;DHT22;24602;44.780;20.408;2022-07-29T16:19:43;37.80;45.60
38848;DHT22;24602;44.780;20.408;2022-07-29T16:22:11;37.90;45.40
38848;DHT22;24602;44.780;20.408;2022-07-29T16:24:39;37.80;45.30
38848;DHT22;24602;44.780;20.408;2022-07-29T16:27:06;37.80;45.30
38848;DHT22;24602;44.780;20.408;2022-07-29T16:29:34;37.70;45.60
38848;DHT22;24602;44.780;20.408;2022-07-29T16:32:04;37.60;46.20
38848;DHT22;24602;44.780;20.408;2022-07-29T16:34:32;37.60;45.80